Time,TemperatureF,DewpointF,PressureIn,WindDirection,WindDirectionDegrees,WindSpeedMPH,WindSpeedGustMPH,Humidity,HourlyPrecipIn,Conditions,Clouds,dailyrainin,SoftwareType,DateUTC
2013-05-05 00:01:00,43.5,40.5,30.36,East,86,0.0,9.0,89,0.00,,,0.00,meteohub,2013-05-05 04:01:00,
2013-05-05 00:02:00,43.5,40.5,30.36,East,86,0.0,9.0,89,0.00,,,0.00,meteohub,2013-05-05 04:02:00,
2013-05-05 00:06:00,43.5,40.5,30.36,ESE,117,2.0,5.0,89,0.00,,,0.00,meteohub,2013-05-05 04:06:00,
2013-05-05 00:11:00,43.5,40.5,30.36,East,92,2.0,8.0,89,0.00,,,0.00,meteohub,2013-05-05 04:11:00,
2013-05-05 00:16:00,43.5,40.5,30.36,East,88,1.0,8.0,89,0.00,,,0.00,meteohub,2013-05-05 04:16:00,
2013-05-05 00:21:00,43.3,40.3,30.36,East,101,2.0,8.0,89,0.00,,,0.00,meteohub,2013-05-05 04:21:00,
2013-05-05 00:26:00,43.3,40.3,30.36,East,79,3.0,6.0,89,0.00,,,0.00,meteohub,2013-05-05 04:26:00,
2013-05-05 00:31:00,43.5,40.5,30.36,East,101,3.0,7.0,89,0.00,,,0.00,meteohub,2013-05-05 04:31:00,
2013-05-05 00:36:00,43.5,40.5,30.36,ENE,62,0.0,7.0,89,0.00,,,0.00,meteohub,2013-05-05 04:36:00,
2013-05-05 00:41:00,43.5,40.5,30.35,ESE,115,1.0,7.0,89,0.00,,,0.00,meteohub,2013-05-05 04:41:00,
2013-05-05 00:46:00,43.5,40.5,30.35,East,94,2.0,7.0,89,0.00,,,0.00,meteohub,2013-05-05 04:46:00,
2013-05-05 00:52:00,43.5,40.5,30.35,East,84,2.0,5.0,89,0.00,,,0.00,meteohub,2013-05-05 04:52:00,
2013-05-05 00:57:00,43.5,40.5,30.35,ENE,72,2.0,5.0,89,0.00,,,0.00,meteohub,2013-05-05 04:57:00,
2013-05-05 01:02:00,43.3,40.3,30.35,East,87,1.0,4.0,89,0.00,,,0.00,meteohub,2013-05-05 05:02:00,
2013-05-05 01:07:00,43.3,40.6,30.35,NE,52,2.0,3.0,90,0.00,,,0.00,meteohub,2013-05-05 05:07:00,
2013-05-05 01:12:00,43.3,40.3,30.35,East,83,2.0,5.0,89,0.00,,,0.00,meteohub,2013-05-05 05:12:00,
2013-05-05 01:17:00,43.3,40.6,30.35,East,82,2.0,5.0,90,0.00,,,0.00,meteohub,2013-05-05 05:17:00,
2013-05-05 01:22:00,43.3,40.6,30.35,ENE,69,2.0,5.0,90,0.00,,,0.00,meteohub,2013-05-05 05:22:00,
2013-05-05 01:27:00,43.3,40.6,30.35,ENE,65,1.0,5.0,90,0.00,,,0.00,meteohub,2013-05-05 05:27:00,
2013-05-05 01:32:00,43.3,40.6,30.35,East,84,2.0,5.0,90,0.00,,,0.00,meteohub,2013-05-05 05:32:00,
2013-05-05 01:37:00,43.3,40.6,30.34,East,90,2.0,5.0,90,0.00,,,0.00,meteohub,2013-05-05 05:37:00,
2013-05-05 01:42:00,43.3,40.6,30.34,ESE,103,1.0,5.0,90,0.00,,,0.00,meteohub,2013-05-05 05:42:00,
2013-05-05 01:47:00,43.3,40.6,30.34,East,94,0.0,5.0,90,0.00,,,0.00,meteohub,2013-05-05 05:47:00,
2013-05-05 01:52:00,43.3,40.6,30.34,East,94,1.0,7.0,90,0.00,,,0.00,meteohub,2013-05-05 05:52:00,
2013-05-05 01:57:00,43.2,40.6,30.34,East,94,0.0,7.0,91,0.00,,,0.00,meteohub,2013-05-05 05:57:00,
2013-05-05 02:02:00,43.2,40.6,30.34,East,94,1.0,2.0,91,0.00,,,0.00,meteohub,2013-05-05 06:02:00,
2013-05-05 02:07:00,43.2,40.6,30.34,East,94,1.0,3.0,91,0.00,,,0.00,meteohub,2013-05-05 06:07:00,
2013-05-05 02:12:00,43.2,40.6,30.34,ENE,62,2.0,5.0,91,0.00,,,0.00,meteohub,2013-05-05 06:12:00,
2013-05-05 02:17:00,43.0,40.5,30.34,ENE,62,1.0,5.0,91,0.00,,,0.00,meteohub,2013-05-05 06:17:00,
2013-05-05 02:22:00,43.2,40.6,30.33,ENE,72,1.0,5.0,91,0.00,,,0.00,meteohub,2013-05-05 06:22:00,
2013-05-05 02:27:00,43.2,40.6,30.33,ENE,72,0.0,6.0,91,0.00,,,0.00,meteohub,2013-05-05 06:27:00,
2013-05-05 02:32:00,43.2,40.6,30.33,West,267,3.0,6.0,91,0.00,,,0.00,meteohub,2013-05-05 06:32:00,
2013-05-05 02:37:00,43.0,40.8,30.33,East,96,3.0,4.0,92,0.00,,,0.00,meteohub,2013-05-05 06:37:00,
2013-05-05 02:42:00,43.2,41.0,30.33,ENE,64,4.0,6.0,92,0.00,,,0.00,meteohub,2013-05-05 06:42:00,
2013-05-05 02:47:00,43.2,41.0,30.34,NE,51,0.0,6.0,92,0.00,,,0.00,meteohub,2013-05-05 06:47:00,
2013-05-05 02:52:00,43.2,41.0,30.34,ESE,102,2.0,6.0,92,0.00,,,0.00,meteohub,2013-05-05 06:52:00,
2013-05-05 02:57:00,43.2,41.0,30.33,East,90,3.0,5.0,92,0.00,,,0.00,meteohub,2013-05-05 06:57:00,
2013-05-05 03:02:00,43.2,41.0,30.33,ESE,109,0.0,5.0,92,0.00,,,0.00,meteohub,2013-05-05 07:02:00,
2013-05-05 03:07:00,43.2,41.0,30.34,ESE,109,1.0,5.0,92,0.00,,,0.00,meteohub,2013-05-05 07:07:00,
2013-05-05 03:12:00,43.2,41.0,30.33,ESE,109,1.0,5.0,92,0.00,,,0.00,meteohub,2013-05-05 07:12:00,
2013-05-05 03:17:00,43.0,40.8,30.33,ESE,109,0.0,3.0,92,0.00,,,0.00,meteohub,2013-05-05 07:17:00,
2013-05-05 03:22:00,43.0,40.8,30.33,East,96,1.0,3.0,92,0.00,,,0.00,meteohub,2013-05-05 07:22:00,
2013-05-05 03:27:00,43.0,40.8,30.33,East,86,1.0,3.0,92,0.00,,,0.00,meteohub,2013-05-05 07:27:00,
2013-05-05 03:32:00,43.2,41.0,30.33,East,92,0.0,4.0,92,0.00,,,0.00,meteohub,2013-05-05 07:32:00,
2013-05-05 03:37:00,43.2,41.0,30.33,ENE,66,2.0,4.0,92,0.00,,,0.00,meteohub,2013-05-05 07:37:00,
2013-05-05 03:42:00,43.2,41.0,30.33,East,84,1.0,4.0,92,0.00,,,0.00,meteohub,2013-05-05 07:42:00,
2013-05-05 03:47:00,43.2,41.0,30.33,East,84,0.0,5.0,92,0.00,,,0.00,meteohub,2013-05-05 07:47:00,
2013-05-05 03:52:00,43.2,41.0,30.33,ESE,109,3.0,5.0,92,0.00,,,0.00,meteohub,2013-05-05 07:52:00,
2013-05-05 03:57:00,43.3,41.2,30.33,ESE,111,3.0,5.0,92,0.00,,,0.00,meteohub,2013-05-05 07:57:00,
2013-05-05 04:02:00,43.3,41.2,30.33,ENE,74,3.0,5.0,92,0.00,,,0.00,meteohub,2013-05-05 08:02:00,
2013-05-05 04:07:00,43.3,41.2,30.33,East,86,1.0,5.0,92,0.00,,,0.00,meteohub,2013-05-05 08:07:00,
2013-05-05 04:12:00,43.3,41.2,30.33,ESE,108,2.0,5.0,92,0.00,,,0.00,meteohub,2013-05-05 08:12:00,
2013-05-05 04:17:00,43.3,41.2,30.33,East,84,1.0,5.0,92,0.00,,,0.00,meteohub,2013-05-05 08:17:00,
2013-05-05 04:22:00,43.3,41.2,30.33,East,85,2.0,5.0,92,0.00,,,0.00,meteohub,2013-05-05 08:22:00,
2013-05-05 04:27:00,43.3,41.2,30.33,East,82,6.0,6.0,92,0.00,,,0.00,meteohub,2013-05-05 08:27:00,
2013-05-05 04:32:00,43.3,41.2,30.32,ENE,72,0.0,7.0,92,0.00,,,0.00,meteohub,2013-05-05 08:32:00,
2013-05-05 04:37:00,43.3,41.2,30.32,East,83,1.0,7.0,92,0.00,,,0.00,meteohub,2013-05-05 08:37:00,
2013-05-05 04:42:00,43.3,41.2,30.32,East,85,2.0,6.0,92,0.00,,,0.00,meteohub,2013-05-05 08:42:00,
2013-05-05 04:47:00,43.5,41.4,30.33,East,81,2.0,9.0,92,0.00,,,0.00,meteohub,2013-05-05 08:47:00,
2013-05-05 04:52:00,43.5,41.4,30.33,ENE,57,0.0,9.0,92,0.00,,,0.00,meteohub,2013-05-05 08:52:00,
2013-05-05 04:57:00,43.5,41.4,30.33,ENE,74,2.0,6.0,92,0.00,,,0.00,meteohub,2013-05-05 08:57:00,
2013-05-05 05:02:00,43.5,41.4,30.33,ENE,74,1.0,5.0,92,0.00,,,0.00,meteohub,2013-05-05 09:02:00,
2013-05-05 05:07:00,43.5,41.4,30.33,East,90,3.0,5.0,92,0.00,,,0.00,meteohub,2013-05-05 09:07:00,
2013-05-05 05:12:00,43.5,41.4,30.33,East,85,1.0,5.0,92,0.00,,,0.00,meteohub,2013-05-05 09:12:00,
2013-05-05 05:17:00,43.5,41.4,30.33,ESE,117,2.0,6.0,92,0.00,,,0.00,meteohub,2013-05-05 09:17:00,
2013-05-05 05:22:00,43.5,41.4,30.33,East,94,2.0,6.0,92,0.00,,,0.00,meteohub,2013-05-05 09:22:00,
2013-05-05 05:27:00,43.5,41.4,30.33,ESE,123,3.0,6.0,92,0.00,,,0.00,meteohub,2013-05-05 09:27:00,
2013-05-05 05:32:00,43.5,41.4,30.33,ENE,76,2.0,6.0,92,0.00,,,0.00,meteohub,2013-05-05 09:32:00,
2013-05-05 05:37:00,43.5,41.4,30.33,ESE,102,1.0,6.0,92,0.00,,,0.00,meteohub,2013-05-05 09:37:00,
2013-05-05 05:42:00,43.5,41.4,30.33,ENE,61,2.0,7.0,92,0.00,,,0.00,meteohub,2013-05-05 09:42:00,
2013-05-05 05:47:00,43.5,41.4,30.33,ENE,76,2.0,8.0,92,0.00,,,0.00,meteohub,2013-05-05 09:47:00,
2013-05-05 05:52:00,43.5,41.4,30.33,East,99,2.0,8.0,92,0.00,,,0.00,meteohub,2013-05-05 09:52:00,
2013-05-05 05:57:00,43.5,41.4,30.33,East,94,2.0,8.0,92,0.00,,,0.00,meteohub,2013-05-05 09:57:00,
2013-05-05 06:02:00,43.5,41.4,30.33,East,96,1.0,5.0,92,0.00,,,0.00,meteohub,2013-05-05 10:02:00,
2013-05-05 06:07:00,43.5,41.4,30.33,East,87,3.0,5.0,92,0.00,,,0.00,meteohub,2013-05-05 10:07:00,
2013-05-05 06:12:00,43.7,41.5,30.34,East,84,0.0,6.0,92,0.00,,,0.00,meteohub,2013-05-05 10:12:00,
2013-05-05 06:17:00,43.9,41.7,30.34,ESE,111,3.0,6.0,92,0.00,,,0.00,meteohub,2013-05-05 10:17:00,
2013-05-05 06:22:00,43.9,41.7,30.34,ENE,78,2.0,5.0,92,0.00,,,0.00,meteohub,2013-05-05 10:22:00,
2013-05-05 06:27:00,44.1,41.9,30.34,NE,40,2.0,5.0,92,0.00,,,0.00,meteohub,2013-05-05 10:27:00,
2013-05-05 06:32:00,44.2,42.1,30.35,SE,128,2.0,5.0,92,0.00,,,0.00,meteohub,2013-05-05 10:32:00,
2013-05-05 06:37:00,44.4,42.3,30.35,WSW,240,1.0,5.0,92,0.00,,,0.00,meteohub,2013-05-05 10:37:00,
2013-05-05 06:42:00,44.6,42.4,30.35,WSW,240,1.0,3.0,92,0.00,,,0.00,meteohub,2013-05-05 10:42:00,
2013-05-05 06:47:00,44.8,42.6,30.35,SW,227,3.0,3.0,92,0.00,,,0.00,meteohub,2013-05-05 10:47:00,
2013-05-05 06:52:00,45.0,42.8,30.35,NE,39,0.0,7.0,92,0.00,,,0.00,meteohub,2013-05-05 10:52:00,
2013-05-05 06:57:00,45.3,42.8,30.35,NE,47,1.0,7.0,91,0.00,,,0.00,meteohub,2013-05-05 10:57:00,
2013-05-05 07:02:00,45.5,43.0,30.35,NNW,332,2.0,7.0,91,0.00,,,0.00,meteohub,2013-05-05 11:02:00,
2013-05-05 07:07:00,45.7,43.0,30.35,SW,215,1.0,7.0,90,0.00,,,0.00,meteohub,2013-05-05 11:07:00,
2013-05-05 07:12:00,45.9,42.8,30.35,SW,225,1.0,5.0,89,0.00,,,0.00,meteohub,2013-05-05 11:12:00,
2013-05-05 07:17:00,45.9,42.8,30.35,ENE,74,2.0,7.0,89,0.00,,,0.00,meteohub,2013-05-05 11:17:00,
2013-05-05 07:22:00,45.9,42.8,30.35,ESE,108,1.0,7.0,89,0.00,,,0.00,meteohub,2013-05-05 11:22:00,
2013-05-05 07:27:00,46.0,43.0,30.35,NE,49,0.0,7.0,89,0.00,,,0.00,meteohub,2013-05-05 11:27:00,
2013-05-05 07:32:00,46.2,43.2,30.35,SW,231,3.0,6.0,89,0.00,,,0.00,meteohub,2013-05-05 11:32:00,
2013-05-05 07:37:00,46.4,43.0,30.35,East,83,1.0,6.0,88,0.00,,,0.00,meteohub,2013-05-05 11:37:00,
2013-05-05 07:42:00,46.8,43.3,30.35,SW,217,3.0,5.0,88,0.00,,,0.00,meteohub,2013-05-05 11:42:00,
2013-05-05 07:47:00,46.9,43.3,30.35,East,88,5.0,7.0,87,0.00,,,0.00,meteohub,2013-05-05 11:47:00,
2013-05-05 07:52:00,46.9,43.3,30.35,SW,233,2.0,7.0,87,0.00,,,0.00,meteohub,2013-05-05 11:52:00,
2013-05-05 07:57:00,47.3,43.7,30.36,SW,233,0.0,7.0,87,0.00,,,0.00,meteohub,2013-05-05 11:57:00,
2013-05-05 08:02:00,47.7,43.7,30.36,SW,231,1.0,5.0,86,0.00,,,0.00,meteohub,2013-05-05 12:02:00,
2013-05-05 08:07:00,48.0,43.7,30.36,East,98,1.0,5.0,85,0.00,,,0.00,meteohub,2013-05-05 12:07:00,
2013-05-05 08:12:00,48.6,44.2,30.36,East,95,2.0,4.0,85,0.00,,,0.00,meteohub,2013-05-05 12:12:00,
2013-05-05 08:17:00,48.4,43.5,30.36,SSE,166,1.0,7.0,83,0.00,,,0.00,meteohub,2013-05-05 12:17:00,
2013-05-05 08:22:00,48.6,43.9,30.36,SW,225,0.0,7.0,84,0.00,,,0.00,meteohub,2013-05-05 12:22:00,
2013-05-05 08:27:00,49.1,44.2,30.36,SSE,162,3.0,7.0,83,0.00,,,0.00,meteohub,2013-05-05 12:27:00,
2013-05-05 08:32:00,49.3,44.1,30.36,East,90,2.0,7.0,82,0.00,,,0.00,meteohub,2013-05-05 12:32:00,
2013-05-05 08:37:00,49.5,44.2,30.35,SW,232,2.0,8.0,82,0.00,,,0.00,meteohub,2013-05-05 12:37:00,
2013-05-05 08:42:00,49.6,44.1,30.36,East,92,5.0,8.0,81,0.00,,,0.00,meteohub,2013-05-05 12:42:00,
2013-05-05 08:47:00,49.5,43.5,30.35,NNE,32,1.0,8.0,80,0.00,,,0.00,meteohub,2013-05-05 12:47:00,
2013-05-05 08:52:00,49.5,43.9,30.35,ESE,116,2.0,6.0,81,0.00,,,0.00,meteohub,2013-05-05 12:52:00,
2013-05-05 08:57:00,49.3,43.7,30.35,East,93,5.0,6.0,81,0.00,,,0.00,meteohub,2013-05-05 12:57:00,
2013-05-05 09:02:00,49.3,44.4,30.35,East,100,2.0,9.0,83,0.00,,,0.00,meteohub,2013-05-05 13:02:00,
2013-05-05 09:07:00,49.3,44.1,30.35,East,100,7.0,9.0,82,0.00,,,0.00,meteohub,2013-05-05 13:07:00,
2013-05-05 09:12:00,49.3,44.1,30.35,East,90,5.0,9.0,82,0.00,,,0.00,meteohub,2013-05-05 13:12:00,
2013-05-05 09:17:00,49.6,44.4,30.36,ENE,67,2.0,9.0,82,0.00,,,0.00,meteohub,2013-05-05 13:17:00,
2013-05-05 09:22:00,49.8,44.6,30.35,East,82,5.0,9.0,82,0.00,,,0.00,meteohub,2013-05-05 13:22:00,
2013-05-05 09:27:00,49.5,44.2,30.36,East,81,5.0,8.0,82,0.00,,,0.00,meteohub,2013-05-05 13:27:00,
2013-05-05 09:32:00,49.6,44.4,30.35,ENE,72,7.0,8.0,82,0.00,,,0.00,meteohub,2013-05-05 13:32:00,
2013-05-05 09:37:00,49.6,44.4,30.35,ESE,110,4.0,10.0,82,0.00,,,0.00,meteohub,2013-05-05 13:37:00,
2013-05-05 09:42:00,49.6,44.8,30.35,East,84,3.0,11.0,83,0.00,,,0.00,meteohub,2013-05-05 13:42:00,
2013-05-05 09:47:00,50.0,44.4,30.35,ENE,61,4.0,11.0,81,0.00,,,0.00,meteohub,2013-05-05 13:47:00,
2013-05-05 09:52:00,50.4,45.1,30.35,ENE,73,8.0,11.0,82,0.00,,,0.00,meteohub,2013-05-05 13:52:00,
2013-05-05 09:57:00,50.5,45.0,30.35,East,99,5.0,9.0,81,0.00,,,0.00,meteohub,2013-05-05 13:57:00,
2013-05-05 10:02:00,50.4,44.1,30.35,East,88,5.0,10.0,79,0.00,,,0.00,meteohub,2013-05-05 14:02:00,
2013-05-05 10:07:00,51.1,45.1,30.35,East,100,6.0,10.0,80,0.00,,,0.00,meteohub,2013-05-05 14:07:00,
2013-05-05 10:12:00,51.3,44.6,30.35,ENE,76,8.0,10.0,78,0.00,,,0.00,meteohub,2013-05-05 14:12:00,
2013-05-05 10:17:00,51.3,44.2,30.35,East,96,7.0,10.0,77,0.00,,,0.00,meteohub,2013-05-05 14:17:00,
2013-05-05 10:22:00,51.3,44.2,30.35,ESE,108,4.0,11.0,77,0.00,,,0.00,meteohub,2013-05-05 14:22:00,
2013-05-05 10:27:00,51.8,44.4,30.35,ENE,72,8.0,11.0,76,0.00,,,0.00,meteohub,2013-05-05 14:27:00,
2013-05-05 10:32:00,52.3,44.6,30.35,East,96,8.0,11.0,75,0.00,,,0.00,meteohub,2013-05-05 14:32:00,
2013-05-05 10:37:00,52.0,43.9,30.35,East,93,2.0,10.0,74,0.00,,,0.00,meteohub,2013-05-05 14:37:00,
2013-05-05 10:42:00,52.7,44.2,30.35,East,97,5.0,11.0,73,0.00,,,0.00,meteohub,2013-05-05 14:42:00,
2013-05-05 10:47:00,52.5,44.1,30.35,NE,34,4.0,11.0,73,0.00,,,0.00,meteohub,2013-05-05 14:47:00,
2013-05-05 10:52:00,52.7,43.9,30.35,ESE,104,9.0,11.0,72,0.00,,,0.00,meteohub,2013-05-05 14:52:00,
2013-05-05 10:57:00,53.2,44.4,30.35,ESE,113,3.0,11.0,72,0.00,,,0.00,meteohub,2013-05-05 14:57:00,
2013-05-05 11:02:00,53.8,44.6,30.35,ENE,62,9.0,10.0,71,0.00,,,0.00,meteohub,2013-05-05 15:02:00,
2013-05-05 11:07:00,53.2,43.0,30.35,ENE,69,8.0,17.0,68,0.00,,,0.00,meteohub,2013-05-05 15:07:00,
2013-05-05 11:12:00,52.9,43.3,30.35,ENE,71,9.0,17.0,70,0.00,,,0.00,meteohub,2013-05-05 15:12:00,
2013-05-05 11:17:00,53.1,43.9,30.35,East,82,3.0,17.0,71,0.00,,,0.00,meteohub,2013-05-05 15:17:00,
2013-05-05 11:22:00,52.9,43.3,30.35,East,83,9.0,14.0,70,0.00,,,0.00,meteohub,2013-05-05 15:22:00,
2013-05-05 11:27:00,53.2,43.3,30.35,East,90,7.0,13.0,69,0.00,,,0.00,meteohub,2013-05-05 15:27:00,
2013-05-05 11:32:00,52.9,43.3,30.35,ESE,104,9.0,15.0,70,0.00,,,0.00,meteohub,2013-05-05 15:32:00,
2013-05-05 11:37:00,53.1,43.9,30.35,East,101,6.0,15.0,71,0.00,,,0.00,meteohub,2013-05-05 15:37:00,
2013-05-05 11:42:00,53.1,43.5,30.35,ESE,113,7.0,15.0,70,0.00,,,0.00,meteohub,2013-05-05 15:42:00,
2013-05-05 11:47:00,52.9,43.3,30.35,East,90,8.0,11.0,70,0.00,,,0.00,meteohub,2013-05-05 15:47:00,
2013-05-05 11:52:00,53.1,44.2,30.35,ESE,107,3.0,13.0,72,0.00,,,0.00,meteohub,2013-05-05 15:52:00,
2013-05-05 11:57:00,53.2,43.7,30.35,ESE,107,4.0,13.0,70,0.00,,,0.00,meteohub,2013-05-05 15:57:00,
2013-05-05 12:02:00,53.4,44.2,30.35,East,82,5.0,13.0,71,0.00,,,0.00,meteohub,2013-05-05 16:02:00,
2013-05-05 12:07:00,53.4,43.5,30.35,ESE,117,7.0,14.0,69,0.00,,,0.00,meteohub,2013-05-05 16:07:00,
2013-05-05 12:12:00,53.1,43.2,30.35,ENE,60,5.0,14.0,69,0.00,,,0.00,meteohub,2013-05-05 16:12:00,
2013-05-05 12:17:00,53.1,43.5,30.35,East,83,2.0,14.0,70,0.00,,,0.00,meteohub,2013-05-05 16:17:00,
2013-05-05 12:22:00,53.8,44.6,30.35,ESE,108,5.0,14.0,71,0.00,,,0.00,meteohub,2013-05-05 16:22:00,
2013-05-05 12:27:00,53.4,43.5,30.34,ESE,121,8.0,13.0,69,0.00,,,0.00,meteohub,2013-05-05 16:27:00,
2013-05-05 12:32:00,53.8,43.9,30.35,East,101,5.0,15.0,69,0.00,,,0.00,meteohub,2013-05-05 16:32:00,
2013-05-05 12:37:00,54.0,44.8,30.35,East,89,5.0,15.0,71,0.00,,,0.00,meteohub,2013-05-05 16:37:00,
2013-05-05 12:42:00,54.1,44.2,30.35,ENE,76,5.0,11.0,69,0.00,,,0.00,meteohub,2013-05-05 16:42:00,
2013-05-05 12:47:00,53.8,43.9,30.35,NE,48,10.0,11.0,69,0.00,,,0.00,meteohub,2013-05-05 16:47:00,
2013-05-05 12:52:00,53.4,43.5,30.35,SW,221,5.0,13.0,69,0.00,,,0.00,meteohub,2013-05-05 16:52:00,
2013-05-05 12:57:00,53.2,43.7,30.35,East,101,3.0,13.0,70,0.00,,,0.00,meteohub,2013-05-05 16:57:00,
2013-05-05 13:02:00,54.1,44.6,30.35,ENE,57,5.0,13.0,70,0.00,,,0.00,meteohub,2013-05-05 17:02:00,
2013-05-05 13:07:00,54.1,43.9,30.35,East,99,8.0,12.0,68,0.00,,,0.00,meteohub,2013-05-05 17:07:00,
2013-05-05 13:12:00,54.0,44.1,30.35,East,88,7.0,12.0,69,0.00,,,0.00,meteohub,2013-05-05 17:12:00,
2013-05-05 13:17:00,54.1,43.9,30.35,ENE,69,7.0,12.0,68,0.00,,,0.00,meteohub,2013-05-05 17:17:00,
2013-05-05 13:22:00,55.0,44.2,30.35,ESE,109,3.0,12.0,67,0.00,,,0.00,meteohub,2013-05-05 17:22:00,
2013-05-05 13:27:00,54.9,43.7,30.35,ENE,69,5.0,11.0,66,0.00,,,0.00,meteohub,2013-05-05 17:27:00,
2013-05-05 13:32:00,54.1,43.3,30.35,SE,127,5.0,13.0,67,0.00,,,0.00,meteohub,2013-05-05 17:32:00,
2013-05-05 13:37:00,54.7,44.2,30.34,SW,227,2.0,14.0,68,0.00,,,0.00,meteohub,2013-05-05 17:37:00,
2013-05-05 13:42:00,55.2,43.7,30.34,East,99,5.0,14.0,65,0.00,,,0.00,meteohub,2013-05-05 17:42:00,
2013-05-05 13:47:00,54.9,43.7,30.34,East,84,6.0,15.0,66,0.00,,,0.00,meteohub,2013-05-05 17:47:00,
2013-05-05 13:52:00,54.9,44.1,30.34,ESE,105,11.0,15.0,67,0.00,,,0.00,meteohub,2013-05-05 17:52:00,
2013-05-05 13:57:00,54.9,43.7,30.34,East,88,6.0,15.0,66,0.00,,,0.00,meteohub,2013-05-05 17:57:00,
2013-05-05 14:02:00,54.7,43.9,30.34,East,94,11.0,15.0,67,0.00,,,0.00,meteohub,2013-05-05 18:02:00,
2013-05-05 14:07:00,54.0,44.1,30.34,ESE,109,10.0,14.0,69,0.00,,,0.00,meteohub,2013-05-05 18:07:00,
2013-05-05 14:12:00,54.0,44.4,30.34,ENE,68,7.0,15.0,70,0.00,,,0.00,meteohub,2013-05-05 18:12:00,
2013-05-05 14:17:00,54.1,44.2,30.34,ENE,74,4.0,15.0,69,0.00,,,0.00,meteohub,2013-05-05 18:17:00,
2013-05-05 14:22:00,54.0,44.4,30.34,East,100,8.0,15.0,70,0.00,,,0.00,meteohub,2013-05-05 18:22:00,
2013-05-05 14:27:00,53.6,44.4,30.34,East,93,8.0,15.0,71,0.00,,,0.00,meteohub,2013-05-05 18:27:00,
2013-05-05 14:32:00,54.0,43.7,30.34,ESE,113,5.0,15.0,68,0.00,,,0.00,meteohub,2013-05-05 18:32:00,
2013-05-05 14:37:00,54.1,43.9,30.34,ESE,103,4.0,13.0,68,0.00,,,0.00,meteohub,2013-05-05 18:37:00,
2013-05-05 14:42:00,53.8,43.9,30.33,ENE,75,9.0,13.0,69,0.00,,,0.00,meteohub,2013-05-05 18:42:00,
2013-05-05 14:47:00,54.1,44.6,30.33,East,98,3.0,11.0,70,0.00,,,0.00,meteohub,2013-05-05 18:47:00,
2013-05-05 14:52:00,54.7,44.2,30.33,NE,51,10.0,14.0,68,0.00,,,0.00,meteohub,2013-05-05 18:52:00,
2013-05-05 14:57:00,53.8,43.9,30.33,ESE,109,7.0,14.0,69,0.00,,,0.00,meteohub,2013-05-05 18:57:00,
2013-05-05 15:02:00,54.3,45.1,30.32,ENE,61,5.0,15.0,71,0.00,,,0.00,meteohub,2013-05-05 19:02:00,
2013-05-05 15:07:00,54.1,44.6,30.32,ENE,78,13.0,15.0,70,0.00,,,0.00,meteohub,2013-05-05 19:07:00,
2013-05-05 15:12:00,54.1,45.0,30.32,NE,51,2.0,17.0,71,0.00,,,0.00,meteohub,2013-05-05 19:12:00,
2013-05-05 15:17:00,55.0,44.6,30.32,East,100,6.0,17.0,68,0.00,,,0.00,meteohub,2013-05-05 19:17:00,
2013-05-05 15:22:00,54.9,44.4,30.32,East,96,3.0,17.0,68,0.00,,,0.00,meteohub,2013-05-05 19:22:00,
2013-05-05 15:27:00,54.7,43.5,30.32,ESE,111,2.0,11.0,66,0.00,,,0.00,meteohub,2013-05-05 19:27:00,
2013-05-05 15:32:00,54.9,44.1,30.32,ENE,74,3.0,14.0,67,0.00,,,0.00,meteohub,2013-05-05 19:32:00,
2013-05-05 15:37:00,55.2,44.1,30.32,ENE,69,5.0,14.0,66,0.00,,,0.00,meteohub,2013-05-05 19:37:00,
2013-05-05 15:42:00,54.3,42.8,30.32,ESE,102,3.0,12.0,65,0.00,,,0.00,meteohub,2013-05-05 19:42:00,
2013-05-05 15:47:00,54.0,42.8,30.32,NNE,18,2.0,16.0,66,0.00,,,0.00,meteohub,2013-05-05 19:47:00,
2013-05-05 15:52:00,54.7,43.9,30.32,SSE,164,3.0,16.0,67,0.00,,,0.00,meteohub,2013-05-05 19:52:00,
2013-05-05 15:57:00,55.0,43.5,30.32,East,99,5.0,13.0,65,0.00,,,0.00,meteohub,2013-05-05 19:57:00,
2013-05-05 16:02:00,54.3,43.2,30.32,SSE,160,2.0,13.0,66,0.00,,,0.00,meteohub,2013-05-05 20:02:00,
2013-05-05 16:07:00,54.3,44.1,30.32,ENE,69,5.0,13.0,68,0.00,,,0.00,meteohub,2013-05-05 20:07:00,
2013-05-05 16:12:00,55.0,44.2,30.32,East,79,2.0,13.0,67,0.00,,,0.00,meteohub,2013-05-05 20:12:00,
2013-05-05 16:17:00,55.6,44.4,30.32,South,178,5.0,13.0,66,0.00,,,0.00,meteohub,2013-05-05 20:17:00,
2013-05-05 16:22:00,55.6,44.8,30.32,ENE,69,4.0,8.0,67,0.00,,,0.00,meteohub,2013-05-05 20:22:00,
2013-05-05 16:27:00,54.7,43.9,30.31,East,101,3.0,9.0,67,0.00,,,0.00,meteohub,2013-05-05 20:27:00,
2013-05-05 16:32:00,54.7,44.2,30.31,East,89,2.0,10.0,68,0.00,,,0.00,meteohub,2013-05-05 20:32:00,
2013-05-05 16:37:00,54.7,44.2,30.31,ENE,63,7.0,10.0,68,0.00,,,0.00,meteohub,2013-05-05 20:37:00,
2013-05-05 16:42:00,54.0,44.4,30.31,ESE,109,5.0,10.0,70,0.00,,,0.00,meteohub,2013-05-05 20:42:00,
2013-05-05 16:47:00,53.8,44.6,30.30,East,97,3.0,10.0,71,0.00,,,0.00,meteohub,2013-05-05 20:47:00,
2013-05-05 16:52:00,54.1,45.0,30.30,ESE,107,2.0,10.0,71,0.00,,,0.00,meteohub,2013-05-05 20:52:00,
2013-05-05 16:57:00,54.3,44.8,30.30,ENE,74,3.0,10.0,70,0.00,,,0.00,meteohub,2013-05-05 20:57:00,
2013-05-05 17:02:00,54.0,44.4,30.30,ESE,104,2.0,9.0,70,0.00,,,0.00,meteohub,2013-05-05 21:02:00,
2013-05-05 17:07:00,54.0,44.8,30.30,ENE,78,5.0,9.0,71,0.00,,,0.00,meteohub,2013-05-05 21:07:00,
2013-05-05 17:12:00,54.0,44.8,30.30,ENE,76,7.0,9.0,71,0.00,,,0.00,meteohub,2013-05-05 21:12:00,
2013-05-05 17:17:00,54.1,45.0,30.30,ESE,104,3.0,10.0,71,0.00,,,0.00,meteohub,2013-05-05 21:17:00,
2013-05-05 17:22:00,54.1,44.6,30.30,ENE,76,1.0,10.0,70,0.00,,,0.00,meteohub,2013-05-05 21:22:00,
2013-05-05 17:27:00,53.8,45.0,30.31,WSW,240,0.0,10.0,72,0.00,,,0.00,meteohub,2013-05-05 21:27:00,
2013-05-05 17:32:00,53.8,45.3,30.31,West,261,3.0,9.0,73,0.00,,,0.00,meteohub,2013-05-05 21:32:00,
2013-05-05 17:37:00,53.2,45.1,30.31,SW,217,1.0,7.0,74,0.00,,,0.00,meteohub,2013-05-05 21:37:00,
2013-05-05 17:42:00,52.9,45.5,30.31,SW,227,4.0,10.0,76,0.00,,,0.00,meteohub,2013-05-05 21:42:00,
2013-05-05 17:47:00,52.3,45.0,30.31,SW,221,3.0,10.0,76,0.00,,,0.00,meteohub,2013-05-05 21:47:00,
2013-05-05 17:52:00,51.8,45.1,30.31,SW,222,6.0,10.0,78,0.00,,,0.00,meteohub,2013-05-05 21:52:00,
2013-05-05 17:57:00,51.4,45.1,30.31,WSW,248,4.0,10.0,79,0.00,,,0.00,meteohub,2013-05-05 21:57:00,
2013-05-05 18:02:00,51.4,45.5,30.31,SW,232,5.0,10.0,80,0.00,,,0.00,meteohub,2013-05-05 22:02:00,
2013-05-05 18:07:00,51.4,45.1,30.31,SW,228,3.0,10.0,79,0.00,,,0.00,meteohub,2013-05-05 22:07:00,
2013-05-05 18:12:00,51.3,45.0,30.31,SW,235,8.0,10.0,79,0.00,,,0.00,meteohub,2013-05-05 22:12:00,
2013-05-05 18:17:00,50.7,44.8,30.31,SW,234,4.0,10.0,80,0.00,,,0.00,meteohub,2013-05-05 22:17:00,
2013-05-05 18:22:00,50.4,44.4,30.31,SW,225,4.0,10.0,80,0.00,,,0.00,meteohub,2013-05-05 22:22:00,
2013-05-05 18:27:00,49.8,44.2,30.31,SW,229,3.0,11.0,81,0.00,,,0.00,meteohub,2013-05-05 22:27:00,
2013-05-05 18:32:00,49.8,44.2,30.31,WSW,247,2.0,11.0,81,0.00,,,0.00,meteohub,2013-05-05 22:32:00,
2013-05-05 18:37:00,49.6,44.1,30.31,SW,228,6.0,11.0,81,0.00,,,0.00,meteohub,2013-05-05 22:37:00,
2013-05-05 18:42:00,49.3,44.1,30.31,WSW,258,2.0,8.0,82,0.00,,,0.00,meteohub,2013-05-05 22:42:00,
2013-05-05 18:47:00,49.1,43.9,30.31,SSW,206,2.0,8.0,82,0.00,,,0.00,meteohub,2013-05-05 22:47:00,
2013-05-05 18:52:00,48.9,43.7,30.31,SW,234,5.0,9.0,82,0.00,,,0.00,meteohub,2013-05-05 22:52:00,
2013-05-05 18:57:00,48.9,44.1,30.31,SW,230,5.0,9.0,83,0.00,,,0.00,meteohub,2013-05-05 22:57:00,
2013-05-05 19:02:00,48.7,43.9,30.31,WSW,241,5.0,7.0,83,0.00,,,0.00,meteohub,2013-05-05 23:02:00,
2013-05-05 19:07:00,48.6,43.9,30.31,SW,226,2.0,8.0,84,0.00,,,0.00,meteohub,2013-05-05 23:07:00,
2013-05-05 19:12:00,48.4,43.7,30.32,SW,232,4.0,8.0,84,0.00,,,0.00,meteohub,2013-05-05 23:12:00,
2013-05-05 19:17:00,48.2,43.5,30.32,SW,228,5.0,8.0,84,0.00,,,0.00,meteohub,2013-05-05 23:17:00,
2013-05-05 19:22:00,48.0,43.7,30.32,SW,228,1.0,7.0,85,0.00,,,0.00,meteohub,2013-05-05 23:22:00,
2013-05-05 19:27:00,47.7,43.3,30.32,West,267,5.0,7.0,85,0.00,,,0.00,meteohub,2013-05-05 23:27:00,
2013-05-05 19:32:00,47.5,43.5,30.32,SW,225,3.0,7.0,86,0.00,,,0.00,meteohub,2013-05-05 23:32:00,
2013-05-05 19:37:00,47.3,43.3,30.32,SW,234,3.0,7.0,86,0.00,,,0.00,meteohub,2013-05-05 23:37:00,
2013-05-05 19:42:00,47.1,43.2,30.32,SW,234,2.0,7.0,86,0.00,,,0.00,meteohub,2013-05-05 23:42:00,
2013-05-05 19:47:00,46.9,43.3,30.32,SW,234,2.0,7.0,87,0.00,,,0.00,meteohub,2013-05-05 23:47:00,
2013-05-05 19:52:00,46.8,43.2,30.32,SW,234,3.0,6.0,87,0.00,,,0.00,meteohub,2013-05-05 23:52:00,
2013-05-05 19:57:00,46.6,43.2,30.32,WSW,247,4.0,5.0,88,0.00,,,0.00,meteohub,2013-05-05 23:57:00,
2013-05-05 20:02:00,46.4,43.0,30.32,WSW,246,0.0,7.0,88,0.00,,,0.00,meteohub,2013-05-06 00:02:00,
2013-05-05 20:07:00,46.2,42.8,30.32,WSW,246,3.0,7.0,88,0.00,,,0.00,meteohub,2013-05-06 00:07:00,
2013-05-05 20:12:00,46.0,42.6,30.32,SW,235,4.0,7.0,88,0.00,,,0.00,meteohub,2013-05-06 00:12:00,
2013-05-05 20:17:00,45.9,42.8,30.32,SW,235,3.0,6.0,89,0.00,,,0.00,meteohub,2013-05-06 00:17:00,
2013-05-05 20:22:00,45.9,42.8,30.33,SW,235,2.0,6.0,89,0.00,,,0.00,meteohub,2013-05-06 00:22:00,
2013-05-05 20:27:00,45.7,42.6,30.33,SW,226,3.0,6.0,89,0.00,,,0.00,meteohub,2013-05-06 00:27:00,
2013-05-05 20:32:00,45.5,42.4,30.33,SW,226,2.0,6.0,89,0.00,,,0.00,meteohub,2013-05-06 00:32:00,
2013-05-05 20:37:00,45.3,42.6,30.33,SW,226,1.0,6.0,90,0.00,,,0.00,meteohub,2013-05-06 00:37:00,
2013-05-05 20:42:00,45.3,42.6,30.33,SW,226,2.0,4.0,90,0.00,,,0.00,meteohub,2013-05-06 00:42:00,
2013-05-05 20:47:00,45.3,42.6,30.33,SW,226,3.0,4.0,90,0.00,,,0.00,meteohub,2013-05-06 00:47:00,
2013-05-05 20:52:00,45.3,42.6,30.33,SW,226,1.0,4.0,90,0.00,,,0.00,meteohub,2013-05-06 00:52:00,
2013-05-05 20:57:00,45.1,42.4,30.33,SW,226,0.0,4.0,90,0.00,,,0.00,meteohub,2013-05-06 00:57:00,
2013-05-05 21:02:00,45.1,42.4,30.33,SW,226,0.0,4.0,90,0.00,,,0.00,meteohub,2013-05-06 01:02:00,
2013-05-05 21:07:00,45.0,42.3,30.33,SW,226,1.0,2.0,90,0.00,,,0.00,meteohub,2013-05-06 01:07:00,
2013-05-05 21:12:00,45.0,42.3,30.34,SW,226,4.0,4.0,90,0.00,,,0.00,meteohub,2013-05-06 01:12:00,
2013-05-05 21:17:00,45.0,42.3,30.34,SW,226,0.0,4.0,90,0.00,,,0.00,meteohub,2013-05-06 01:17:00,
2013-05-05 21:22:00,44.8,42.3,30.34,SW,226,2.0,4.0,91,0.00,,,0.00,meteohub,2013-05-06 01:22:00,
2013-05-05 21:27:00,44.8,42.3,30.34,SW,226,2.0,4.0,91,0.00,,,0.00,meteohub,2013-05-06 01:27:00,
2013-05-05 21:32:00,44.8,42.3,30.34,SW,226,1.0,4.0,91,0.00,,,0.00,meteohub,2013-05-06 01:32:00,
2013-05-05 21:37:00,44.8,42.3,30.34,SW,226,0.0,4.0,91,0.00,,,0.00,meteohub,2013-05-06 01:37:00,
2013-05-05 21:42:00,44.8,42.3,30.34,SW,226,0.0,3.0,91,0.00,,,0.00,meteohub,2013-05-06 01:42:00,
2013-05-05 21:47:00,44.8,42.3,30.34,SW,226,1.0,2.0,91,0.00,,,0.00,meteohub,2013-05-06 01:47:00,
2013-05-05 21:52:00,44.8,42.3,30.34,SW,226,1.0,3.0,91,0.00,,,0.00,meteohub,2013-05-06 01:52:00,
2013-05-05 21:57:00,45.0,42.4,30.34,SW,233,4.0,6.0,91,0.00,,,0.00,meteohub,2013-05-06 01:57:00,
2013-05-05 22:02:00,45.0,42.4,30.34,SW,227,4.0,6.0,91,0.00,,,0.00,meteohub,2013-05-06 02:02:00,
2013-05-05 22:07:00,45.0,42.4,30.34,SW,227,1.0,6.0,91,0.00,,,0.00,meteohub,2013-05-06 02:07:00,
2013-05-05 22:12:00,45.0,42.4,30.34,SW,227,0.0,6.0,91,0.00,,,0.00,meteohub,2013-05-06 02:12:00,
2013-05-05 22:17:00,45.0,42.4,30.34,West,266,3.0,5.0,91,0.00,,,0.00,meteohub,2013-05-06 02:17:00,
2013-05-05 22:22:00,44.8,42.3,30.34,SW,215,4.0,5.0,91,0.00,,,0.00,meteohub,2013-05-06 02:22:00,
2013-05-05 22:27:00,44.8,42.3,30.34,West,261,0.0,6.0,91,0.00,,,0.00,meteohub,2013-05-06 02:27:00,
2013-05-05 22:32:00,44.8,42.3,30.34,SW,221,2.0,6.0,91,0.00,,,0.00,meteohub,2013-05-06 02:32:00,
2013-05-05 22:37:00,44.6,42.1,30.34,WSW,253,3.0,6.0,91,0.00,,,0.00,meteohub,2013-05-06 02:37:00,
2013-05-05 22:42:00,44.8,42.6,30.34,SW,233,3.0,6.0,92,0.00,,,0.00,meteohub,2013-05-06 02:42:00,
2013-05-05 22:47:00,44.6,42.1,30.33,SW,232,4.0,6.0,91,0.00,,,0.00,meteohub,2013-05-06 02:47:00,
2013-05-05 22:52:00,44.8,42.6,30.33,SW,231,3.0,6.0,92,0.00,,,0.00,meteohub,2013-05-06 02:52:00,
2013-05-05 22:57:00,44.6,42.4,30.33,WSW,246,1.0,7.0,92,0.00,,,0.00,meteohub,2013-05-06 02:57:00,
2013-05-05 23:02:00,44.6,42.4,30.33,WSW,246,2.0,7.0,92,0.00,,,0.00,meteohub,2013-05-06 03:02:00,
2013-05-05 23:07:00,44.6,42.4,30.33,WSW,246,4.0,6.0,92,0.00,,,0.00,meteohub,2013-05-06 03:07:00,
2013-05-05 23:12:00,44.6,42.4,30.33,WSW,257,3.0,6.0,92,0.00,,,0.00,meteohub,2013-05-06 03:12:00,
2013-05-05 23:17:00,44.4,42.3,30.33,WSW,257,1.0,5.0,92,0.00,,,0.00,meteohub,2013-05-06 03:17:00,
2013-05-05 23:22:00,44.4,42.3,30.33,WSW,257,0.0,5.0,92,0.00,,,0.00,meteohub,2013-05-06 03:22:00,
2013-05-05 23:27:00,44.6,42.4,30.33,WSW,257,4.0,5.0,92,0.00,,,0.00,meteohub,2013-05-06 03:27:00,
2013-05-05 23:32:00,44.4,42.3,30.33,WSW,246,4.0,6.0,92,0.00,,,0.00,meteohub,2013-05-06 03:32:00,
2013-05-05 23:37:00,44.4,42.3,30.33,WSW,247,1.0,7.0,92,0.00,,,0.00,meteohub,2013-05-06 03:37:00,
2013-05-05 23:42:00,44.4,42.3,30.33,WSW,242,3.0,7.0,92,0.00,,,0.00,meteohub,2013-05-06 03:42:00,
2013-05-05 23:47:00,44.4,42.3,30.33,WSW,242,4.0,7.0,92,0.00,,,0.00,meteohub,2013-05-06 03:47:00,
2013-05-05 23:52:00,44.4,42.3,30.33,West,269,2.0,7.0,92,0.00,,,0.00,meteohub,2013-05-06 03:52:00,
2013-05-05 23:57:00,44.4,42.4,30.33,WSW,254,2.0,7.0,93,0.00,,,0.00,meteohub,2013-05-06 03:57:00,